sensor_id;sensor_type;location;lat;lon;timestamp;pressure;altitude;pressure_sealevel;temperature;humidity
84817;BME280;75051;53.104;18.058;2024-02-26T00:00:54;99925.48;;;2.64;77.92
84817;BME280;75051;53.104;18.058;2024-02-26T00:03:41;99925.23;;;2.59;77.83
84817;BME280;75051;53.104;18.058;2024-02-26T00:06:08;99922.63;;;2.50;77.90
84817;BME280;75051;53.104;18.058;2024-02-26T00:08:35;99924.03;;;2.45;78.04
84817;BME280;75051;53.104;18.058;2024-02-26T00:11:02;99929.34;;;2.41;77.78
84817;BME280;75051;53.104;18.058;2024-02-26T00:13:29;99929.42;;;2.38;77.86
84817;BME280;75051;53.104;18.058;2024-02-26T00:15:56;99932.23;;;2.33;77.76
84817;BME280;75051;53.104;18.058;2024-02-26T00:18:22;99929.80;;;2.26;77.98
84817;BME280;75051;53.104;18.058;2024-02-26T00:20:49;99932.29;;;2.24;78.09
84817;BME280;75051;53.104;18.058;2024-02-26T00:23:16;99930.81;;;2.21;77.55
84817;BME280;75051;53.104;18.058;2024-02-26T00:25:42;99927.83;;;2.16;77.71
84817;BME280;75051;53.104;18.058;2024-02-26T00:28:10;99930.45;;;2.11;77.56
84817;BME280;75051;53.104;18.058;2024-02-26T00:30:37;99925.09;;;2.04;77.53
84817;BME280;75051;53.104;18.058;2024-02-26T00:33:03;99918.50;;;2.02;77.48
84817;BME280;75051;53.104;18.058;2024-02-26T00:35:30;99914.48;;;2.03;77.95
84817;BME280;75051;53.104;18.058;2024-02-26T00:37:57;99909.25;;;2.03;78.15
84817;BME280;75051;53.104;18.058;2024-02-26T00:40:25;99910.50;;;2.04;78.13
84817;BME280;75051;53.104;18.058;2024-02-26T00:42:51;99910.19;;;2.01;77.92
84817;BME280;75051;53.104;18.058;2024-02-26T00:45:18;99914.91;;;1.98;78.13
84817;BME280;75051;53.104;18.058;2024-02-26T00:47:45;99913.52;;;1.96;78.09
84817;BME280;75051;53.104;18.058;2024-02-26T00:50:14;99909.48;;;1.95;77.89
84817;BME280;75051;53.104;18.058;2024-02-26T00:52:41;99907.66;;;1.95;77.65
84817;BME280;75051;53.104;18.058;2024-02-26T00:55:08;99911.41;;;1.93;78.04
84817;BME280;75051;53.104;18.058;2024-02-26T00:57:35;99912.70;;;1.89;77.72
84817;BME280;75051;53.104;18.058;2024-02-26T01:00:02;99916.74;;;1.79;77.48
84817;BME280;75051;53.104;18.058;2024-02-26T01:02:30;99917.58;;;1.74;77.51
84817;BME280;75051;53.104;18.058;2024-02-26T01:04:56;99918.22;;;1.75;78.24
84817;BME280;75051;53.104;18.058;2024-02-26T01:07:23;99913.99;;;1.76;77.98
84817;BME280;75051;53.104;18.058;2024-02-26T01:09:50;99912.56;;;1.76;78.06
84817;BME280;75051;53.104;18.058;2024-02-26T01:12:16;99913.04;;;1.75;77.98
84817;BME280;75051;53.104;18.058;2024-02-26T01:14:43;99916.02;;;1.71;77.71
84817;BME280;75051;53.104;18.058;2024-02-26T01:17:10;99918.48;;;1.70;77.90
84817;BME280;75051;53.104;18.058;2024-02-26T01:19:36;99916.16;;;1.70;78.38
84817;BME280;75051;53.104;18.058;2024-02-26T01:22:03;99921.48;;;1.68;78.15
84817;BME280;75051;53.104;18.058;2024-02-26T01:24:29;99919.77;;;1.63;77.98
84817;BME280;75051;53.104;18.058;2024-02-26T01:26:56;99918.61;;;1.58;77.81
84817;BME280;75051;53.104;18.058;2024-02-26T01:29:23;99919.19;;;1.55;77.90
84817;BME280;75051;53.104;18.058;2024-02-26T01:31:49;99920.20;;;1.56;78.27
84817;BME280;75051;53.104;18.058;2024-02-26T01:34:16;99918.27;;;1.56;77.86
84817;BME280;75051;53.104;18.058;2024-02-26T01:36:44;99917.92;;;1.55;78.10
84817;BME280;75051;53.104;18.058;2024-02-26T01:39:11;99918.92;;;1.58;78.27
84817;BME280;75051;53.104;18.058;2024-02-26T01:41:39;99920.64;;;1.59;78.46
84817;BME280;75051;53.104;18.058;2024-02-26T01:44:06;99917.67;;;1.65;78.46
84817;BME280;75051;53.104;18.058;2024-02-26T01:46:34;99925.38;;;1.72;78.50
84817;BME280;75051;53.104;18.058;2024-02-26T01:49:02;99925.46;;;1.77;78.48
84817;BME280;75051;53.104;18.058;2024-02-26T01:51:31;99923.36;;;1.81;78.40
84817;BME280;75051;53.104;18.058;2024-02-26T01:54:01;99919.54;;;1.84;78.49
84817;BME280;75051;53.104;18.058;2024-02-26T01:56:29;99924.10;;;1.89;78.59
84817;BME280;75051;53.104;18.058;2024-02-26T01:58:58;99920.23;;;1.95;78.35
84817;BME280;75051;53.104;18.058;2024-02-26T02:01:27;99924.65;;;1.95;78.27
84817;BME280;75051;53.104;18.058;2024-02-26T02:03:56;99924.64;;;1.93;78.10
84817;BME280;75051;53.104;18.058;2024-02-26T02:06:24;99929.85;;;1.90;78.08
84817;BME280;75051;53.104;18.058;2024-02-26T02:08:52;99931.39;;;1.94;78.50
84817;BME280;75051;53.104;18.058;2024-02-26T02:11:19;99929.79;;;1.97;78.55
84817;BME280;75051;53.104;18.058;2024-02-26T02:13:47;99932.08;;;2.02;78.62
84817;BME280;75051;53.104;18.058;2024-02-26T02:16:14;99930.48;;;2.04;78.30
84817;BME280;75051;53.104;18.058;2024-02-26T02:18:40;99929.38;;;2.05;78.36
84817;BME280;75051;53.104;18.058;2024-02-26T02:21:07;99933.17;;;2.04;78.21
84817;BME280;75051;53.104;18.058;2024-02-26T02:23:34;99932.52;;;2.01;78.10
84817;BME280;75051;53.104;18.058;2024-02-26T02:26:00;99924.74;;;2.02;78.46
84817;BME280;75051;53.104;18.058;2024-02-26T02:28:27;99923.61;;;2.01;78.33
84817;BME280;75051;53.104;18.058;2024-02-26T02:30:55;99919.47;;;1.97;78.24
84817;BME280;75051;53.104;18.058;2024-02-26T02:33:23;99916.48;;;1.92;78.55
84817;BME280;75051;53.104;18.058;2024-02-26T02:35:51;99922.25;;;1.90;78.43
84817;BME280;75051;53.104;18.058;2024-02-26T02:38:21;99924.01;;;1.86;78.57
84817;BME280;75051;53.104;18.058;2024-02-26T02:40:47;99928.44;;;1.84;78.52
84817;BME280;75051;53.104;18.058;2024-02-26T02:43:14;99930.64;;;1.82;78.71
84817;BME280;75051;53.104;18.058;2024-02-26T02:45:40;99931.18;;;1.80;79.19
84817;BME280;75051;53.104;18.058;2024-02-26T02:48:07;99933.59;;;1.81;79.38
84817;BME280;75051;53.104;18.058;2024-02-26T02:50:33;99932.59;;;1.82;79.20
84817;BME280;75051;53.104;18.058;2024-02-26T02:53:00;99931.56;;;1.81;79.30
84817;BME280;75051;53.104;18.058;2024-02-26T02:55:27;99932.95;;;1.80;79.47
84817;BME280;75051;53.104;18.058;2024-02-26T02:57:54;99935.31;;;1.81;79.78
84817;BME280;75051;53.104;18.058;2024-02-26T03:00:22;99934.88;;;1.84;79.89
84817;BME280;75051;53.104;18.058;2024-02-26T03:02:51;99937.97;;;1.88;79.76
84817;BME280;75051;53.104;18.058;2024-02-26T03:05:19;99941.02;;;1.88;79.84
84817;BME280;75051;53.104;18.058;2024-02-26T03:07:46;99937.38;;;1.86;80.07
84817;BME280;75051;53.104;18.058;2024-02-26T03:10:13;99940.86;;;1.85;79.69
84817;BME280;75051;53.104;18.058;2024-02-26T03:12:40;99945.94;;;1.89;79.77
84817;BME280;75051;53.104;18.058;2024-02-26T03:15:09;99941.27;;;1.91;79.59
84817;BME280;75051;53.104;18.058;2024-02-26T03:17:37;99937.25;;;1.90;79.52
84817;BME280;75051;53.104;18.058;2024-02-26T03:20:05;99933.70;;;1.88;79.82
84817;BME280;75051;53.104;18.058;2024-02-26T03:22:32;99930.80;;;1.82;79.30
84817;BME280;75051;53.104;18.058;2024-02-26T03:24:58;99932.88;;;1.78;79.20
84817;BME280;75051;53.104;18.058;2024-02-26T03:27:25;99935.52;;;1.75;79.18
84817;BME280;75051;53.104;18.058;2024-02-26T03:29:51;99936.56;;;1.71;79.28
84817;BME280;75051;53.104;18.058;2024-02-26T03:32:19;99941.84;;;1.64;78.95
84817;BME280;75051;53.104;18.058;2024-02-26T03:34:46;99938.02;;;1.56;79.43
84817;BME280;75051;53.104;18.058;2024-02-26T03:37:13;99939.83;;;1.52;79.48
84817;BME280;75051;53.104;18.058;2024-02-26T03:39:39;99939.31;;;1.52;79.75
84817;BME280;75051;53.104;18.058;2024-02-26T03:42:06;99940.30;;;1.51;79.75
84817;BME280;75051;53.104;18.058;2024-02-26T03:44:32;99937.36;;;1.55;80.12
84817;BME280;75051;53.104;18.058;2024-02-26T03:46:59;99935.61;;;1.57;80.11
84817;BME280;75051;53.104;18.058;2024-02-26T03:49:26;99934.64;;;1.54;80.10
84817;BME280;75051;53.104;18.058;2024-02-26T03:51:52;99930.86;;;1.54;80.15
84817;BME280;75051;53.104;18.058;2024-02-26T03:54:19;99928.47;;;1.57;79.91
84817;BME280;75051;53.104;18.058;2024-02-26T03:56:46;99930.81;;;1.59;80.17
84817;BME280;75051;53.104;18.058;2024-02-26T03:59:12;99930.09;;;1.57;79.97
84817;BME280;75051;53.104;18.058;2024-02-26T04:01:45;99935.59;;;1.58;79.94
84817;BME280;75051;53.104;18.058;2024-02-26T04:04:12;99937.55;;;1.58;79.86
84817;BME280;75051;53.104;18.058;2024-02-26T04:06:39;99938.67;;;1.59;79.63
84817;BME280;75051;53.104;18.058;2024-02-26T04:09:06;99935.61;;;1.57;79.70
84817;BME280;75051;53.104;18.058;2024-02-26T04:11:32;99935.89;;;1.54;79.46
84817;BME280;75051;53.104;18.058;2024-02-26T04:14:01;99935.11;;;1.48;79.53
84817;BME280;75051;53.104;18.058;2024-02-26T04:16:31;99931.73;;;1.42;79.36
84817;BME280;75051;53.104;18.058;2024-02-26T04:18:58;99933.13;;;1.38;79.22
84817;BME280;75051;53.104;18.058;2024-02-26T04:21:25;99927.35;;;1.33;79.23
84817;BME280;75051;53.104;18.058;2024-02-26T04:23:51;99925.23;;;1.26;79.31
84817;BME280;75051;53.104;18.058;2024-02-26T04:26:21;99929.06;;;1.18;79.32
84817;BME280;75051;53.104;18.058;2024-02-26T04:28:48;99932.09;;;1.12;79.55
84817;BME280;75051;53.104;18.058;2024-02-26T04:31:24;99940.55;;;1.07;79.56
84817;BME280;75051;53.104;18.058;2024-02-26T04:33:51;99939.96;;;1.03;79.43
84817;BME280;75051;53.104;18.058;2024-02-26T04:36:18;99939.55;;;1.00;79.57
84817;BME280;75051;53.104;18.058;2024-02-26T04:38:44;99940.36;;;0.97;79.53
84817;BME280;75051;53.104;18.058;2024-02-26T04:41:14;99939.59;;;0.93;79.35
84817;BME280;75051;53.104;18.058;2024-02-26T04:43:40;99940.66;;;0.91;79.42
84817;BME280;75051;53.104;18.058;2024-02-26T04:46:11;99943.11;;;0.91;79.65
84817;BME280;75051;53.104;18.058;2024-02-26T04:48:37;99942.31;;;0.90;79.46
84817;BME280;75051;53.104;18.058;2024-02-26T04:51:08;99942.23;;;0.89;79.35
84817;BME280;75051;53.104;18.058;2024-02-26T04:53:35;99943.23;;;0.86;79.25
84817;BME280;75051;53.104;18.058;2024-02-26T04:56:02;99943.95;;;0.81;79.53
84817;BME280;75051;53.104;18.058;2024-02-26T04:58:29;99944.56;;;0.76;79.24
84817;BME280;75051;53.104;18.058;2024-02-26T05:00:55;99949.40;;;0.74;79.37
84817;BME280;75051;53.104;18.058;2024-02-26T05:03:22;99953.96;;;0.70;79.52
84817;BME280;75051;53.104;18.058;2024-02-26T05:05:49;99958.65;;;0.65;79.35
84817;BME280;75051;53.104;18.058;2024-02-26T05:08:18;99958.98;;;0.59;79.57
84817;BME280;75051;53.104;18.058;2024-02-26T05:10:45;99956.55;;;0.51;79.26
84817;BME280;75051;53.104;18.058;2024-02-26T05:13:12;99963.77;;;0.48;79.36
84817;BME280;75051;53.104;18.058;2024-02-26T05:15:41;99967.79;;;0.47;79.48
84817;BME280;75051;53.104;18.058;2024-02-26T05:18:08;99970.80;;;0.43;79.65
84817;BME280;75051;53.104;18.058;2024-02-26T05:20:36;99976.59;;;0.37;79.55
84817;BME280;75051;53.104;18.058;2024-02-26T05:23:05;99977.86;;;0.32;79.78
84817;BME280;75051;53.104;18.058;2024-02-26T05:25:32;99979.46;;;0.30;79.76
84817;BME280;75051;53.104;18.058;2024-02-26T05:27:58;99984.10;;;0.30;79.69
84817;BME280;75051;53.104;18.058;2024-02-26T05:30:25;99987.30;;;0.28;79.42
84817;BME280;75051;53.104;18.058;2024-02-26T05:32:53;99987.88;;;0.25;79.63
84817;BME280;75051;53.104;18.058;2024-02-26T05:35:20;99984.10;;;0.21;79.61
84817;BME280;75051;53.104;18.058;2024-02-26T05:37:47;99993.80;;;0.18;79.69
84817;BME280;75051;53.104;18.058;2024-02-26T05:40:14;99992.50;;;0.16;79.65
84817;BME280;75051;53.104;18.058;2024-02-26T05:42:41;99994.33;;;0.15;79.61
84817;BME280;75051;53.104;18.058;2024-02-26T05:45:08;99997.41;;;0.15;79.67
84817;BME280;75051;53.104;18.058;2024-02-26T05:47:35;99994.91;;;0.13;79.88
84817;BME280;75051;53.104;18.058;2024-02-26T05:50:02;100000.80;;;0.11;79.74
84817;BME280;75051;53.104;18.058;2024-02-26T05:52:31;100000.01;;;0.09;79.75
84817;BME280;75051;53.104;18.058;2024-02-26T05:54:59;100005.48;;;0.10;79.73
84817;BME280;75051;53.104;18.058;2024-02-26T05:57:26;100006.55;;;0.10;79.78
84817;BME280;75051;53.104;18.058;2024-02-26T05:59:53;100011.30;;;0.10;79.89
84817;BME280;75051;53.104;18.058;2024-02-26T06:02:19;100013.27;;;0.10;80.05
84817;BME280;75051;53.104;18.058;2024-02-26T06:04:46;100013.16;;;0.12;80.01
84817;BME280;75051;53.104;18.058;2024-02-26T06:07:13;100007.16;;;0.15;80.14
84817;BME280;75051;53.104;18.058;2024-02-26T06:09:41;100008.98;;;0.20;80.00
84817;BME280;75051;53.104;18.058;2024-02-26T06:12:10;100011.83;;;0.22;80.00
84817;BME280;75051;53.104;18.058;2024-02-26T06:14:37;100014.88;;;0.24;79.91
84817;BME280;75051;53.104;18.058;2024-02-26T06:17:03;100018.42;;;0.24;80.00
84817;BME280;75051;53.104;18.058;2024-02-26T06:19:31;100019.89;;;0.25;79.83
84817;BME280;75051;53.104;18.058;2024-02-26T06:21:59;100020.44;;;0.30;80.03
84817;BME280;75051;53.104;18.058;2024-02-26T06:24:26;100023.72;;;0.36;79.88
84817;BME280;75051;53.104;18.058;2024-02-26T06:26:53;100024.42;;;0.38;79.89
84817;BME280;75051;53.104;18.058;2024-02-26T06:29:20;100028.73;;;0.40;79.85
84817;BME280;75051;53.104;18.058;2024-02-26T06:31:47;100029.98;;;0.45;80.09
84817;BME280;75051;53.104;18.058;2024-02-26T06:34:14;100029.77;;;0.52;79.84
84817;BME280;75051;53.104;18.058;2024-02-26T06:36:41;100036.20;;;0.58;79.89
84817;BME280;75051;53.104;18.058;2024-02-26T06:39:08;100036.69;;;0.63;79.47
84817;BME280;75051;53.104;18.058;2024-02-26T06:41:34;100037.08;;;0.67;79.87
84817;BME280;75051;53.104;18.058;2024-02-26T06:44:03;100037.64;;;0.71;79.45
84817;BME280;75051;53.104;18.058;2024-02-26T06:46:33;100037.44;;;0.74;79.71
84817;BME280;75051;53.104;18.058;2024-02-26T06:49:00;100037.67;;;0.80;79.43
84817;BME280;75051;53.104;18.058;2024-02-26T06:51:26;100039.71;;;0.83;79.23
84817;BME280;75051;53.104;18.058;2024-02-26T06:53:53;100040.24;;;0.86;79.42
84817;BME280;75051;53.104;18.058;2024-02-26T06:56:20;100043.98;;;0.90;79.46
84817;BME280;75051;53.104;18.058;2024-02-26T06:58:46;100040.83;;;0.92;79.43
84817;BME280;75051;53.104;18.058;2024-02-26T07:01:13;100040.58;;;1.01;80.00
84817;BME280;75051;53.104;18.058;2024-02-26T07:03:43;100040.95;;;1.09;79.26
84817;BME280;75051;53.104;18.058;2024-02-26T07:06:10;100041.89;;;1.15;79.33
84817;BME280;75051;53.104;18.058;2024-02-26T07:08:36;100043.71;;;1.19;79.51
84817;BME280;75051;53.104;18.058;2024-02-26T07:11:07;100048.09;;;1.23;79.28
84817;BME280;75051;53.104;18.058;2024-02-26T07:13:35;100043.09;;;1.32;79.12
84817;BME280;75051;53.104;18.058;2024-02-26T07:16:02;100047.13;;;1.39;79.05
84817;BME280;75051;53.104;18.058;2024-02-26T07:18:29;100044.82;;;1.45;78.93
84817;BME280;75051;53.104;18.058;2024-02-26T07:20:58;100043.13;;;1.48;78.71
84817;BME280;75051;53.104;18.058;2024-02-26T07:23:28;100046.26;;;1.51;78.61
84817;BME280;75051;53.104;18.058;2024-02-26T07:25:54;100052.73;;;1.57;78.90
84817;BME280;75051;53.104;18.058;2024-02-26T07:28:21;100059.55;;;1.63;78.93
84817;BME280;75051;53.104;18.058;2024-02-26T07:30:48;100058.00;;;1.75;78.88
84817;BME280;75051;53.104;18.058;2024-02-26T07:33:15;100061.26;;;1.87;78.76
84817;BME280;75051;53.104;18.058;2024-02-26T07:35:41;100060.35;;;2.00;78.45
84817;BME280;75051;53.104;18.058;2024-02-26T07:38:08;100061.41;;;2.11;78.32
84817;BME280;75051;53.104;18.058;2024-02-26T07:40:35;100063.55;;;2.25;78.44
84817;BME280;75051;53.104;18.058;2024-02-26T07:43:03;100066.29;;;2.41;78.40
84817;BME280;75051;53.104;18.058;2024-02-26T07:45:31;100067.86;;;2.54;78.25
84817;BME280;75051;53.104;18.058;2024-02-26T07:47:57;100071.06;;;2.62;77.66
84817;BME280;75051;53.104;18.058;2024-02-26T07:50:25;100074.89;;;2.71;77.46
84817;BME280;75051;53.104;18.058;2024-02-26T07:52:52;100076.90;;;2.81;77.32
84817;BME280;75051;53.104;18.058;2024-02-26T07:55:21;100073.55;;;2.91;76.71
84817;BME280;75051;53.104;18.058;2024-02-26T07:57:49;100076.75;;;3.01;76.88
84817;BME280;75051;53.104;18.058;2024-02-26T08:00:16;100073.48;;;3.13;76.33
84817;BME280;75051;53.104;18.058;2024-02-26T08:02:45;100073.75;;;3.26;76.69
84817;BME280;75051;53.104;18.058;2024-02-26T08:05:11;100079.57;;;3.37;76.31
84817;BME280;75051;53.104;18.058;2024-02-26T08:07:38;100081.05;;;3.39;76.39
84817;BME280;75051;53.104;18.058;2024-02-26T08:10:05;100083.48;;;3.41;76.44
84817;BME280;75051;53.104;18.058;2024-02-26T08:12:32;100078.33;;;3.51;76.50
84817;BME280;75051;53.104;18.058;2024-02-26T08:14:59;100082.86;;;3.68;76.55
84817;BME280;75051;53.104;18.058;2024-02-26T08:17:26;100088.23;;;3.83;76.45
84817;BME280;75051;53.104;18.058;2024-02-26T08:19:54;100087.20;;;3.94;76.26
84817;BME280;75051;53.104;18.058;2024-02-26T08:22:21;100086.79;;;4.03;76.55
84817;BME280;75051;53.104;18.058;2024-02-26T08:24:47;100090.98;;;4.14;76.50
84817;BME280;75051;53.104;18.058;2024-02-26T08:27:14;100086.11;;;4.22;75.96
84817;BME280;75051;53.104;18.058;2024-02-26T08:29:41;100085.66;;;4.49;75.54
84817;BME280;75051;53.104;18.058;2024-02-26T08:32:08;100079.52;;;4.90;74.91
84817;BME280;75051;53.104;18.058;2024-02-26T08:34:36;100076.77;;;5.18;74.90
84817;BME280;75051;53.104;18.058;2024-02-26T08:37:05;100079.89;;;5.29;74.43
84817;BME280;75051;53.104;18.058;2024-02-26T08:39:33;100078.70;;;5.28;74.74
84817;BME280;75051;53.104;18.058;2024-02-26T08:42:00;100085.17;;;5.39;74.78
84817;BME280;75051;53.104;18.058;2024-02-26T08:44:27;100087.46;;;5.54;74.23
84817;BME280;75051;53.104;18.058;2024-02-26T08:46:54;100087.81;;;5.74;74.34
84817;BME280;75051;53.104;18.058;2024-02-26T08:49:20;100092.48;;;6.08;77.41
84817;BME280;75051;53.104;18.058;2024-02-26T08:51:49;100093.66;;;6.86;76.51
84817;BME280;75051;53.104;18.058;2024-02-26T08:54:16;100095.58;;;7.35;75.23
84817;BME280;75051;53.104;18.058;2024-02-26T08:56:43;100091.88;;;7.66;73.81
84817;BME280;75051;53.104;18.058;2024-02-26T08:59:10;100095.02;;;7.60;71.51
84817;BME280;75051;53.104;18.058;2024-02-26T09:01:38;100096.75;;;7.39;71.46
84817;BME280;75051;53.104;18.058;2024-02-26T09:04:04;100098.29;;;7.18;70.84
84817;BME280;75051;53.104;18.058;2024-02-26T09:06:31;100104.95;;;6.98;71.21
84817;BME280;75051;53.104;18.058;2024-02-26T09:08:58;100104.20;;;6.86;71.87
84817;BME280;75051;53.104;18.058;2024-02-26T09:11:24;100101.52;;;6.97;71.97
84817;BME280;75051;53.104;18.058;2024-02-26T09:13:51;100097.89;;;7.17;71.62
84817;BME280;75051;53.104;18.058;2024-02-26T09:16:17;100101.08;;;7.60;70.91
84817;BME280;75051;53.104;18.058;2024-02-26T09:18:46;100098.16;;;7.98;69.89
84817;BME280;75051;53.104;18.058;2024-02-26T09:21:14;100104.69;;;8.21;68.79
84817;BME280;75051;53.104;18.058;2024-02-26T09:23:41;100107.48;;;8.36;68.30
84817;BME280;75051;53.104;18.058;2024-02-26T09:26:08;100107.31;;;8.29;69.32
84817;BME280;75051;53.104;18.058;2024-02-26T09:28:36;100107.33;;;8.64;69.67
84817;BME280;75051;53.104;18.058;2024-02-26T09:31:04;100103.66;;;8.82;67.89
84817;BME280;75051;53.104;18.058;2024-02-26T09:33:33;100103.44;;;9.17;67.33
84817;BME280;75051;53.104;18.058;2024-02-26T09:35:59;100100.02;;;9.72;64.62
84817;BME280;75051;53.104;18.058;2024-02-26T09:38:31;100096.71;;;10.17;64.62
84817;BME280;75051;53.104;18.058;2024-02-26T09:41:05;100099.27;;;10.71;64.28
84817;BME280;75051;53.104;18.058;2024-02-26T09:43:35;100103.20;;;11.25;61.27
84817;BME280;75051;53.104;18.058;2024-02-26T09:46:03;100101.80;;;11.66;61.25
84817;BME280;75051;53.104;18.058;2024-02-26T09:48:30;100107.80;;;12.06;60.03
84817;BME280;75051;53.104;18.058;2024-02-26T09:50:57;100108.89;;;12.34;58.88
84817;BME280;75051;53.104;18.058;2024-02-26T09:53:24;100110.02;;;12.60;58.62
84817;BME280;75051;53.104;18.058;2024-02-26T09:55:51;100108.08;;;12.90;57.95
84817;BME280;75051;53.104;18.058;2024-02-26T09:58:18;100105.41;;;13.30;57.38
84817;BME280;75051;53.104;18.058;2024-02-26T10:00:52;100109.09;;;13.64;56.09
84817;BME280;75051;53.104;18.058;2024-02-26T10:03:21;100106.59;;;13.83;55.30
84817;BME280;75051;53.104;18.058;2024-02-26T10:05:50;100102.48;;;13.90;54.53
84817;BME280;75051;53.104;18.058;2024-02-26T10:08:17;100103.93;;;13.94;53.37
84817;BME280;75051;53.104;18.058;2024-02-26T10:10:47;100101.77;;;14.05;55.45
84817;BME280;75051;53.104;18.058;2024-02-26T10:13:14;100106.60;;;14.40;52.79
84817;BME280;75051;53.104;18.058;2024-02-26T10:15:41;100103.77;;;14.51;52.43
84817;BME280;75051;53.104;18.058;2024-02-26T10:18:08;100102.00;;;14.57;52.27
84817;BME280;75051;53.104;18.058;2024-02-26T10:20:34;100098.22;;;14.83;53.71
84817;BME280;75051;53.104;18.058;2024-02-26T10:23:04;100100.88;;;15.28;51.89
84817;BME280;75051;53.104;18.058;2024-02-26T10:25:32;100100.39;;;15.37;50.79
84817;BME280;75051;53.104;18.058;2024-02-26T10:28:00;100102.27;;;15.44;50.55
84817;BME280;75051;53.104;18.058;2024-02-26T10:30:36;100098.30;;;15.50;49.70
84817;BME280;75051;53.104;18.058;2024-02-26T10:33:03;100089.07;;;15.48;50.50
84817;BME280;75051;53.104;18.058;2024-02-26T10:35:30;100099.30;;;15.76;49.73
84817;BME280;75051;53.104;18.058;2024-02-26T10:37:58;100094.05;;;15.66;48.96
84817;BME280;75051;53.104;18.058;2024-02-26T10:40:24;100088.28;;;15.64;49.52
84817;BME280;75051;53.104;18.058;2024-02-26T10:42:51;100094.61;;;15.85;49.49
84817;BME280;75051;53.104;18.058;2024-02-26T10:45:18;100096.48;;;16.15;49.34
84817;BME280;75051;53.104;18.058;2024-02-26T10:47:45;100091.82;;;16.41;46.90
84817;BME280;75051;53.104;18.058;2024-02-26T10:50:13;100098.86;;;16.27;46.85
84817;BME280;75051;53.104;18.058;2024-02-26T10:52:41;100102.65;;;15.98;46.91
84817;BME280;75051;53.104;18.058;2024-02-26T10:55:15;100097.98;;;15.40;48.40
84817;BME280;75051;53.104;18.058;2024-02-26T10:57:48;100100.07;;;14.99;49.53
84817;BME280;75051;53.104;18.058;2024-02-26T11:00:19;100097.98;;;15.11;49.52
84817;BME280;75051;53.104;18.058;2024-02-26T11:02:46;100093.25;;;15.07;49.20
84817;BME280;75051;53.104;18.058;2024-02-26T11:05:15;100089.46;;;15.07;49.43
84817;BME280;75051;53.104;18.058;2024-02-26T11:07:43;100089.01;;;15.22;49.23
84817;BME280;75051;53.104;18.058;2024-02-26T11:10:11;100087.06;;;15.28;48.71
84817;BME280;75051;53.104;18.058;2024-02-26T11:12:39;100085.77;;;15.24;48.94
84817;BME280;75051;53.104;18.058;2024-02-26T11:15:06;100086.34;;;15.29;48.67
84817;BME280;75051;53.104;18.058;2024-02-26T11:17:35;100084.09;;;15.20;47.77
84817;BME280;75051;53.104;18.058;2024-02-26T11:20:03;100082.73;;;15.00;48.21
84817;BME280;75051;53.104;18.058;2024-02-26T11:22:31;100078.95;;;14.87;48.81
84817;BME280;75051;53.104;18.058;2024-02-26T11:24:58;100078.19;;;14.84;48.72
84817;BME280;75051;53.104;18.058;2024-02-26T11:27:30;100077.73;;;14.78;48.62
84817;BME280;75051;53.104;18.058;2024-02-26T11:30:01;100074.86;;;14.75;48.86
84817;BME280;75051;53.104;18.058;2024-02-26T11:32:29;100076.34;;;14.70;49.01
84817;BME280;75051;53.104;18.058;2024-02-26T11:34:58;100077.53;;;14.65;49.52
84817;BME280;75051;53.104;18.058;2024-02-26T11:37:26;100080.25;;;14.70;49.60
84817;BME280;75051;53.104;18.058;2024-02-26T11:39:53;100077.73;;;14.68;49.60
84817;BME280;75051;53.104;18.058;2024-02-26T11:42:24;100082.58;;;14.67;49.47
84817;BME280;75051;53.104;18.058;2024-02-26T11:44:56;100086.48;;;14.60;50.13
84817;BME280;75051;53.104;18.058;2024-02-26T11:47:27;100083.69;;;14.51;50.08
84817;BME280;75051;53.104;18.058;2024-02-26T11:49:53;100080.88;;;14.35;50.43
84817;BME280;75051;53.104;18.058;2024-02-26T11:52:20;100082.66;;;14.26;50.87
84817;BME280;75051;53.104;18.058;2024-02-26T11:54:51;100081.83;;;14.30;51.30
84817;BME280;75051;53.104;18.058;2024-02-26T11:57:23;100078.52;;;14.35;51.32
84817;BME280;75051;53.104;18.058;2024-02-26T11:59:50;100075.36;;;14.33;51.42
84817;BME280;75051;53.104;18.058;2024-02-26T12:02:46;100075.77;;;14.26;51.53
84817;BME280;75051;53.104;18.058;2024-02-26T12:05:17;100080.27;;;14.09;51.97
84817;BME280;75051;53.104;18.058;2024-02-26T12:07:49;100082.05;;;14.04;52.22
84817;BME280;75051;53.104;18.058;2024-02-26T12:10:27;100079.77;;;13.95;52.69
84817;BME280;75051;53.104;18.058;2024-02-26T12:12:59;100078.58;;;13.81;52.94
84817;BME280;75051;53.104;18.058;2024-02-26T12:15:33;100075.36;;;13.74;53.13
84817;BME280;75051;53.104;18.058;2024-02-26T12:18:04;100080.31;;;13.70;52.92
84817;BME280;75051;53.104;18.058;2024-02-26T12:20:31;100075.27;;;13.71;53.27
84817;BME280;75051;53.104;18.058;2024-02-26T12:22:58;100074.64;;;13.74;53.42
84817;BME280;75051;53.104;18.058;2024-02-26T12:25:29;100068.27;;;13.75;52.91
84817;BME280;75051;53.104;18.058;2024-02-26T12:27:57;100064.86;;;13.75;53.01
84817;BME280;75051;53.104;18.058;2024-02-26T12:30:24;100066.65;;;13.71;53.16
84817;BME280;75051;53.104;18.058;2024-02-26T12:32:55;100067.24;;;13.61;53.15
84817;BME280;75051;53.104;18.058;2024-02-26T12:35:28;100069.64;;;13.46;53.50
84817;BME280;75051;53.104;18.058;2024-02-26T12:37:55;100068.85;;;13.30;53.47
84817;BME280;75051;53.104;18.058;2024-02-26T12:40:22;100063.48;;;13.13;54.26
84817;BME280;75051;53.104;18.058;2024-02-26T12:42:49;100065.24;;;13.01;54.76
84817;BME280;75051;53.104;18.058;2024-02-26T12:45:16;100063.77;;;12.90;54.77
84817;BME280;75051;53.104;18.058;2024-02-26T12:47:44;100062.69;;;12.78;55.00
84817;BME280;75051;53.104;18.058;2024-02-26T12:50:12;100058.85;;;12.70;55.04
84817;BME280;75051;53.104;18.058;2024-02-26T12:52:45;100060.79;;;12.67;55.10
84817;BME280;75051;53.104;18.058;2024-02-26T12:55:18;100059.02;;;12.66;55.00